Time;durP1;ratioP1;P1;durP2;ratioP2;P2;SDS_P1;SDS_P2;PMS_P1;PMS_P2;Temp;Humidity;BMP_temperature;BMP_pressure;BME280_temperature;BME280_humidity;BME280_pressure;Samples;Min_cycle;Max_cycle;Signal;HPM_P1;HPM_P2
2022/05/14 00:01:55;;;;;;;2.67;1.00;;;12.00;99.90;;;;;;5043371;28;20071;-61
2022/05/14 00:04:22;;;;;;;2.30;1.00;;;12.00;99.90;;;;;;5041731;28;20049;-60
2022/05/14 00:06:49;;;;;;;3.13;1.27;;;11.90;99.90;;;;;;5043076;28;20568;-61
2022/05/14 00:09:16;;;;;;;3.20;1.38;;;11.90;99.90;;;;;;5042587;28;20151;-61
2022/05/14 00:14:28;;;;;;;1.48;0.90;;;11.90;99.90;;;;;;5042929;28;20151;-61
2022/05/14 00:16:55;;;;;;;2.33;1.00;;;11.80;99.90;;;;;;5043288;28;20080;-61
2022/05/14 00:19:22;;;;;;;1.88;0.98;;;11.80;99.90;;;;;;5024253;28;20107;-61
2022/05/14 00:21:49;;;;;;;1.17;0.60;;;11.70;99.90;;;;;;5042698;28;20049;-61
2022/05/14 00:24:16;;;;;;;1.55;0.90;;;11.70;99.90;;;;;;5042217;28;20140;-61
2022/05/14 00:26:43;;;;;;;1.83;0.90;;;11.70;99.90;;;;;;5043336;28;20060;-61
2022/05/14 00:29:10;;;;;;;1.52;0.60;;;11.70;99.90;;;;;;5043036;28;20582;-61
2022/05/14 00:31:36;;;;;;;0.90;0.63;;;11.70;99.90;;;;;;5043001;28;20132;-61
2022/05/14 00:34:04;;;;;;;1.30;0.60;;;11.60;99.90;;;;;;5041546;28;20048;-61
2022/05/14 00:36:31;;;;;;;2.42;1.50;;;11.60;99.90;;;;;;5042586;28;20496;-61
2022/05/14 00:38:58;;;;;;;0.55;0.50;;;11.50;99.90;;;;;;5042982;28;20072;-61
2022/05/14 00:41:27;;;;;;;0.75;0.70;;;11.50;99.90;;;;;;5043019;28;20051;-61
2022/05/14 00:43:58;;;;;;;2.97;0.70;;;11.50;99.90;;;;;;5041869;28;20709;-61
2022/05/14 00:46:32;;;;;;;1.40;0.60;;;11.40;99.90;;;;;;5042880;28;20141;-61
2022/05/14 00:48:59;;;;;;;1.75;0.60;;;11.40;99.90;;;;;;5024073;28;20508;-61
2022/05/14 00:51:33;;;;;;;1.67;0.70;;;11.30;99.90;;;;;;5025714;28;20045;-61
2022/05/14 00:54:02;;;;;;;1.45;0.60;;;11.30;99.90;;;;;;5042766;28;20083;-61
2022/05/14 00:56:32;;;;;;;0.82;0.60;;;11.30;99.90;;;;;;5025129;28;20496;-61
2022/05/14 00:59:06;;;;;;;1.67;0.80;;;11.20;99.90;;;;;;5042626;28;20095;-61
2022/05/14 01:01:34;;;;;;;1.00;0.63;;;11.20;99.90;;;;;;5042356;28;20346;-61
2022/05/14 01:04:01;;;;;;;2.05;0.68;;;11.20;99.90;;;;;;5041364;28;20057;-61
2022/05/14 01:06:29;;;;;;;2.22;0.68;;;11.10;99.90;;;;;;5042308;28;20052;-62
2022/05/14 01:08:59;;;;;;;1.30;0.60;;;11.10;99.90;;;;;;5025283;28;20512;-61
2022/05/14 01:11:28;;;;;;;1.85;0.90;;;11.10;99.90;;;;;;5042853;28;20049;-61
2022/05/14 01:13:55;;;;;;;1.30;0.60;;;11.00;99.90;;;;;;5024139;28;20084;-61
2022/05/14 01:16:21;;;;;;;1.17;0.68;;;11.00;99.90;;;;;;5043089;28;20053;-59
2022/05/14 01:18:49;;;;;;;1.20;0.50;;;11.00;99.90;;;;;;5041786;28;20063;-61
2022/05/14 01:21:32;;;;;;;1.33;0.52;;;11.00;99.90;;;;;;5042312;28;20132;-61
2022/05/14 01:26:46;;;;;;;2.33;0.57;;;10.90;99.90;;;;;;5028102;28;20057;-59
2022/05/14 01:29:15;;;;;;;1.00;0.50;;;10.90;99.90;;;;;;5024517;28;20055;-61
2022/05/14 01:31:42;;;;;;;1.30;0.50;;;10.90;99.90;;;;;;5025852;28;20080;-61
2022/05/14 01:34:12;;;;;;;1.10;0.50;;;10.80;99.90;;;;;;5041597;28;20051;-60
2022/05/14 01:36:39;;;;;;;0.85;0.52;;;10.80;99.90;;;;;;5043814;28;20045;-61
2022/05/14 01:39:06;;;;;;;2.25;0.57;;;10.70;99.90;;;;;;5044052;28;20068;-61
2022/05/14 01:41:33;;;;;;;0.73;0.50;;;10.80;99.90;;;;;;5044758;28;20088;-61
2022/05/14 01:44:00;;;;;;;0.90;0.60;;;10.70;99.90;;;;;;5043579;28;20453;-62
2022/05/14 01:46:26;;;;;;;2.25;0.73;;;10.70;99.90;;;;;;5044053;28;20055;-61
2022/05/14 01:48:53;;;;;;;0.65;0.45;;;10.70;99.90;;;;;;5043135;28;20059;-61
2022/05/14 01:51:20;;;;;;;1.30;0.68;;;10.60;99.90;;;;;;5043699;28;20080;-62
2022/05/14 01:53:47;;;;;;;1.63;0.60;;;10.60;99.90;;;;;;5044073;28;20118;-61
2022/05/14 01:56:13;;;;;;;1.48;0.70;;;10.60;99.90;;;;;;5044238;28;20076;-62
2022/05/14 01:58:40;;;;;;;0.80;0.40;;;10.60;99.90;;;;;;5043595;28;20057;-61
2022/05/14 02:01:16;;;;;;;1.35;0.93;;;10.50;99.90;;;;;;5043418;28;20136;-61
2022/05/14 02:03:45;;;;;;;1.70;0.70;;;10.50;99.90;;;;;;5042576;28;20049;-61
2022/05/14 02:06:13;;;;;;;1.42;0.45;;;10.50;99.90;;;;;;5043589;28;20111;-61
2022/05/14 02:08:39;;;;;;;0.77;0.43;;;10.50;99.90;;;;;;5043928;28;20529;-62
2022/05/14 02:11:08;;;;;;;1.13;0.65;;;10.40;99.90;;;;;;5026001;28;20139;-62
2022/05/14 02:13:35;;;;;;;0.90;0.57;;;10.40;99.90;;;;;;5025507;28;20055;-61
2022/05/14 02:16:03;;;;;;;1.55;0.70;;;10.30;99.90;;;;;;5043704;28;20061;-62
2022/05/14 02:18:29;;;;;;;1.00;0.60;;;10.30;99.90;;;;;;5025793;28;20583;-61
2022/05/14 02:20:56;;;;;;;1.33;0.80;;;10.20;99.90;;;;;;5042825;28;20128;-61
2022/05/14 02:23:23;;;;;;;0.80;0.60;;;10.20;99.90;;;;;;5043692;28;20057;-60
2022/05/14 02:25:50;;;;;;;1.40;0.50;;;10.20;99.90;;;;;;5025482;28;20132;-61
2022/05/14 02:28:17;;;;;;;1.23;0.50;;;10.20;99.90;;;;;;5043517;28;20052;-61
2022/05/14 02:30:44;;;;;;;1.05;0.68;;;10.20;99.90;;;;;;5043386;28;20049;-62
2022/05/14 02:33:11;;;;;;;1.52;0.80;;;10.20;99.90;;;;;;5045965;28;20045;-61
2022/05/14 02:35:38;;;;;;;1.63;0.80;;;10.10;99.90;;;;;;5046301;28;20088;-61
2022/05/14 02:38:05;;;;;;;1.23;0.68;;;10.10;99.90;;;;;;5047784;28;20095;-61
2022/05/14 02:40:31;;;;;;;0.88;0.50;;;10.10;99.90;;;;;;5047110;28;20153;-61
2022/05/14 02:42:58;;;;;;;2.30;0.80;;;10.00;99.90;;;;;;5047310;28;20129;-61
2022/05/14 02:45:25;;;;;;;1.10;0.90;;;10.00;99.90;;;;;;5046363;28;20082;-61
2022/05/14 02:47:52;;;;;;;0.95;0.68;;;10.00;99.90;;;;;;5046946;28;20055;-61
2022/05/14 02:50:19;;;;;;;1.10;0.55;;;10.00;99.90;;;;;;5045551;28;20468;-61
2022/05/14 02:52:45;;;;;;;0.82;0.60;;;10.00;99.90;;;;;;5046879;28;20053;-61
2022/05/14 02:55:12;;;;;;;2.03;0.70;;;9.90;99.90;;;;;;5046871;28;20056;-61
2022/05/14 02:57:40;;;;;;;1.40;0.88;;;9.90;99.90;;;;;;5046799;28;20107;-61
2022/05/14 03:00:09;;;;;;;0.75;0.45;;;9.90;99.90;;;;;;5046069;28;20535;-61
2022/05/14 03:02:36;;;;;;;1.80;0.90;;;9.80;99.90;;;;;;5045813;28;20084;-61
2022/05/14 03:05:03;;;;;;;1.02;0.50;;;9.80;99.90;;;;;;5045916;28;20488;-61
2022/05/14 03:07:30;;;;;;;2.15;0.82;;;9.80;99.90;;;;;;5028918;28;20408;-61
2022/05/14 03:09:57;;;;;;;0.98;0.52;;;9.70;99.90;;;;;;5046474;28;20103;-61
2022/05/14 03:12:24;;;;;;;0.90;0.60;;;9.70;99.90;;;;;;5046413;28;20076;-60
2022/05/14 03:14:51;;;;;;;1.50;0.85;;;9.70;99.90;;;;;;5045887;28;20463;-61
2022/05/14 03:17:18;;;;;;;0.57;0.50;;;9.60;99.90;;;;;;5046918;28;20136;-61
2022/05/14 03:19:45;;;;;;;0.93;0.70;;;9.60;99.90;;;;;;5045482;28;20415;-61
2022/05/14 03:22:12;;;;;;;1.10;0.70;;;9.50;99.90;;;;;;5045675;28;20080;-60
2022/05/14 03:24:39;;;;;;;0.45;0.45;;;9.40;99.90;;;;;;5045966;28;20132;-61
2022/05/14 03:27:08;;;;;;;0.95;0.50;;;9.40;99.90;;;;;;5046390;28;20057;-61
2022/05/14 03:29:35;;;;;;;1.83;0.68;;;9.40;99.90;;;;;;5045728;28;20092;-60
2022/05/14 03:32:02;;;;;;;2.13;0.60;;;9.40;99.90;;;;;;5046160;28;20045;-61
2022/05/14 03:34:29;;;;;;;0.88;0.50;;;9.30;99.90;;;;;;5044759;28;20472;-61
2022/05/14 03:36:56;;;;;;;0.43;0.43;;;9.30;99.90;;;;;;5045580;28;20135;-61
2022/05/14 03:39:22;;;;;;;1.35;0.60;;;9.30;99.90;;;;;;5045666;28;20427;-61
2022/05/14 03:41:49;;;;;;;1.42;0.80;;;9.30;99.90;;;;;;5046101;28;20052;-61
2022/05/14 03:44:16;;;;;;;0.50;0.40;;;9.20;99.90;;;;;;5044048;28;20357;-60
2022/05/14 03:46:43;;;;;;;1.30;0.77;;;9.30;99.90;;;;;;5046173;28;20080;-61
2022/05/14 03:49:10;;;;;;;1.00;0.70;;;9.20;99.90;;;;;;5044194;28;20088;-61
2022/05/14 03:51:36;;;;;;;1.23;0.63;;;9.20;99.90;;;;;;5045241;28;20492;-61
2022/05/14 03:54:04;;;;;;;1.42;0.57;;;9.10;99.90;;;;;;5045260;28;20135;-62
2022/05/14 03:56:32;;;;;;;1.52;0.60;;;9.10;99.90;;;;;;5045853;28;20076;-61
2022/05/14 03:58:58;;;;;;;2.08;0.70;;;9.10;99.90;;;;;;5045341;28;20131;-61
2022/05/14 04:01:25;;;;;;;2.28;0.70;;;9.10;99.90;;;;;;5045121;28;20087;-61
2022/05/14 04:03:52;;;;;;;1.85;0.70;;;9.10;99.90;;;;;;5044147;28;20048;-62
2022/05/14 04:06:19;;;;;;;0.95;0.65;;;9.10;99.90;;;;;;5045031;28;20139;-61
2022/05/14 04:08:46;;;;;;;1.02;0.68;;;9.10;99.90;;;;;;5045445;28;20052;-61
2022/05/14 04:11:13;;;;;;;0.95;0.70;;;9.10;99.90;;;;;;5045069;28;20599;-61
2022/05/14 04:13:39;;;;;;;1.48;0.60;;;9.10;99.90;;;;;;5044967;28;20137;-62
2022/05/14 04:16:07;;;;;;;1.35;0.70;;;9.10;99.90;;;;;;5045459;28;20397;-63
2022/05/14 04:18:34;;;;;;;1.42;0.70;;;9.10;99.90;;;;;;5045204;28;20127;-62
2022/05/14 04:21:01;;;;;;;0.43;0.40;;;9.10;99.90;;;;;;5044152;28;20045;-62
2022/05/14 04:23:28;;;;;;;0.82;0.60;;;9.10;99.90;;;;;;5044921;28;20144;-61
2022/05/14 04:25:55;;;;;;;1.98;0.85;;;9.10;99.90;;;;;;5045281;28;20139;-61
2022/05/14 04:28:22;;;;;;;1.65;0.70;;;9.10;99.90;;;;;;5044758;28;20131;-61
2022/05/14 04:30:49;;;;;;;1.00;0.68;;;9.20;99.90;;;;;;5044736;28;20571;-61
2022/05/14 04:33:16;;;;;;;1.77;0.80;;;9.30;99.90;;;;;;5044729;28;20154;-61
2022/05/14 04:35:44;;;;;;;0.90;0.57;;;9.40;99.90;;;;;;5043738;28;20135;-61
2022/05/14 04:38:10;;;;;;;0.82;0.50;;;9.40;99.90;;;;;;5027503;28;20076;-61
2022/05/14 04:40:37;;;;;;;1.10;0.80;;;9.50;99.90;;;;;;5044856;28;20474;-61
2022/05/14 04:43:05;;;;;;;1.40;0.57;;;9.60;99.90;;;;;;5044729;28;20061;-61
2022/05/14 04:45:32;;;;;;;1.73;0.60;;;9.70;99.90;;;;;;5044075;28;20493;-61
2022/05/14 04:47:59;;;;;;;0.88;0.73;;;9.80;99.90;;;;;;5044719;28;20218;-61
2022/05/14 04:50:26;;;;;;;0.95;0.65;;;9.90;99.90;;;;;;5042849;28;20346;-61
2022/05/14 04:52:52;;;;;;;1.48;0.73;;;10.00;99.90;;;;;;5026754;28;20049;-61
2022/05/14 04:55:19;;;;;;;1.42;0.80;;;10.00;99.90;;;;;;5043967;28;20076;-61
2022/05/14 04:57:46;;;;;;;1.58;0.80;;;10.10;99.90;;;;;;5044518;28;20080;-61
2022/05/14 05:00:14;;;;;;;1.48;0.65;;;10.20;99.90;;;;;;5026054;28;20112;-61
2022/05/14 05:05:28;;;;;;;2.25;1.02;;;10.30;99.90;;;;;;5041200;28;20060;-61
2022/05/14 05:07:56;;;;;;;1.48;0.70;;;10.40;99.90;;;;;;5042869;28;20506;-61
2022/05/14 05:10:22;;;;;;;1.65;0.70;;;10.40;99.90;;;;;;5042281;28;20136;-61
2022/05/14 05:12:49;;;;;;;1.42;0.68;;;10.50;99.90;;;;;;5024273;28;20544;-61
2022/05/14 05:15:16;;;;;;;0.95;0.60;;;10.50;99.90;;;;;;5041827;28;20157;-61
2022/05/14 05:17:43;;;;;;;0.88;0.50;;;10.60;99.90;;;;;;5042219;28;20057;-61
2022/05/14 05:20:11;;;;;;;0.43;0.43;;;10.70;99.90;;;;;;5041812;28;20045;-61
2022/05/14 05:22:38;;;;;;;1.02;0.63;;;10.70;99.90;;;;;;5023603;28;20049;-61
2022/05/14 05:25:05;;;;;;;0.88;0.70;;;10.80;99.90;;;;;;5042372;28;20467;-61
2022/05/14 05:27:32;;;;;;;1.83;0.70;;;10.80;99.90;;;;;;5042239;28;20135;-61
2022/05/14 05:29:59;;;;;;;1.27;0.82;;;10.90;99.90;;;;;;5041413;28;20088;-61
2022/05/14 05:32:25;;;;;;;1.25;0.50;;;11.00;99.90;;;;;;5042263;28;20546;-61
2022/05/14 05:34:52;;;;;;;1.52;0.70;;;11.00;99.90;;;;;;5040842;28;20045;-61
2022/05/14 05:37:19;;;;;;;1.98;0.90;;;11.10;99.90;;;;;;5042184;28;20406;-61
2022/05/14 05:39:45;;;;;;;1.27;0.77;;;11.10;99.90;;;;;;5042409;28;20079;-62
2022/05/14 05:42:12;;;;;;;1.08;0.65;;;11.20;99.90;;;;;;5041896;28;20140;-61
2022/05/14 05:44:41;;;;;;;1.55;0.70;;;11.20;99.90;;;;;;5041519;28;20060;-62
2022/05/14 05:47:08;;;;;;;1.38;0.70;;;11.30;99.90;;;;;;5024782;28;20152;-62
2022/05/14 05:49:38;;;;;;;1.45;0.60;;;11.40;99.90;;;;;;5040594;28;20143;-61
2022/05/14 05:52:05;;;;;;;1.50;0.82;;;11.40;99.90;;;;;;5041703;28;20124;-62
2022/05/14 05:57:17;;;;;;;0.90;0.70;;;11.50;99.90;;;;;;5027196;28;20088;-61
2022/05/14 05:59:44;;;;;;;1.35;0.90;;;11.50;99.90;;;;;;5041454;28;20049;-62
2022/05/14 06:02:10;;;;;;;0.80;0.50;;;11.50;99.90;;;;;;5040998;28;20061;-62
2022/05/14 06:04:38;;;;;;;0.82;0.50;;;11.50;99.90;;;;;;5040631;28;20049;-62
2022/05/14 06:07:04;;;;;;;1.30;0.70;;;11.50;99.90;;;;;;5042770;28;20099;-63
2022/05/14 06:09:32;;;;;;;1.25;0.68;;;11.50;99.90;;;;;;5045819;28;20072;-62
2022/05/14 06:11:59;;;;;;;2.20;0.70;;;11.60;99.90;;;;;;5046208;28;20060;-62
2022/05/14 06:14:26;;;;;;;1.73;0.60;;;11.60;99.90;;;;;;5045621;28;20412;-61
2022/05/14 06:16:53;;;;;;;1.15;0.68;;;11.60;99.90;;;;;;5045804;28;20072;-61
2022/05/14 06:19:20;;;;;;;2.08;0.90;;;11.60;99.90;;;;;;5046618;28;20084;-61
2022/05/14 06:21:46;;;;;;;1.20;0.52;;;11.70;99.90;;;;;;5046247;28;20480;-61
2022/05/14 06:24:13;;;;;;;1.27;0.70;;;11.80;99.90;;;;;;5045113;28;20044;-61
2022/05/14 06:26:40;;;;;;;1.00;0.80;;;11.80;99.90;;;;;;5045679;28;20476;-61
2022/05/14 06:29:07;;;;;;;1.33;0.60;;;11.90;99.90;;;;;;5046260;28;20056;-62
2022/05/14 06:31:34;;;;;;;0.85;0.70;;;12.00;99.90;;;;;;5049323;28;20053;-61
2022/05/14 06:34:01;;;;;;;1.45;0.63;;;12.10;99.90;;;;;;5046763;28;20053;-61
2022/05/14 06:36:27;;;;;;;1.58;0.73;;;12.20;99.90;;;;;;5048192;28;20496;-62
2022/05/14 06:38:54;;;;;;;2.47;0.80;;;12.20;99.90;;;;;;5048199;28;20143;-61
2022/05/14 06:41:21;;;;;;;1.88;0.90;;;12.30;99.90;;;;;;5030813;28;20073;-61
2022/05/14 06:43:48;;;;;;;1.35;0.80;;;12.30;99.90;;;;;;5047473;28;20488;-62
2022/05/14 06:46:15;;;;;;;1.58;0.90;;;12.40;99.90;;;;;;5048300;28;20052;-61
2022/05/14 06:48:42;;;;;;;3.63;0.90;;;12.50;99.90;;;;;;5047316;28;20052;-62
2022/05/14 06:51:20;;;;;;;2.20;1.20;;;12.70;99.90;;;;;;5030165;28;20087;-61
2022/05/14 06:53:46;;;;;;;2.10;1.20;;;12.90;99.90;;;;;;5031275;28;20132;-62
2022/05/14 06:56:13;;;;;;;2.13;1.00;;;13.00;99.90;;;;;;5048441;28;20128;-60
2022/05/14 06:58:41;;;;;;;1.60;0.98;;;13.10;99.90;;;;;;5029762;28;20591;-60
2022/05/14 07:01:08;;;;;;;1.40;0.95;;;13.20;99.90;;;;;;5025268;28;20061;-60
2022/05/14 07:06:39;;;;;;;2.25;1.20;;;13.40;99.90;;;;;;5003377;28;20133;-61
2022/05/14 07:09:13;;;;;;;1.17;0.77;;;13.50;99.90;;;;;;5006388;28;20539;-62
2022/05/14 07:11:42;;;;;;;1.50;1.05;;;13.50;99.90;;;;;;5012447;28;20063;-62
2022/05/14 07:14:10;;;;;;;3.45;1.08;;;13.60;99.90;;;;;;5026976;28;20515;-63
2022/05/14 07:16:37;;;;;;;1.55;0.90;;;13.60;99.90;;;;;;5027433;28;20067;-61
2022/05/14 07:19:08;;;;;;;2.25;1.27;;;13.60;99.90;;;;;;5026556;28;20559;-62
2022/05/14 07:21:40;;;;;;;2.28;0.90;;;13.70;99.90;;;;;;5027441;28;20247;-61
2022/05/14 07:24:08;;;;;;;1.80;1.20;;;13.70;99.90;;;;;;5027087;28;20132;-61
2022/05/14 07:26:36;;;;;;;2.35;1.38;;;13.70;99.90;;;;;;5027395;28;20556;-61
2022/05/14 07:29:07;;;;;;;2.00;1.10;;;13.70;99.90;;;;;;5027226;28;20092;-62
2022/05/14 07:31:34;;;;;;;1.67;0.98;;;13.70;99.90;;;;;;5026559;28;20077;-61
2022/05/14 07:34:01;;;;;;;1.23;0.82;;;13.70;99.90;;;;;;5026362;28;20045;-62
2022/05/14 07:36:29;;;;;;;1.55;0.80;;;13.70;99.90;;;;;;5027178;28;20144;-62
2022/05/14 07:38:58;;;;;;;2.13;1.27;;;13.70;99.90;;;;;;5026210;28;20080;-62
2022/05/14 07:41:25;;;;;;;1.90;1.05;;;13.60;99.90;;;;;;5026215;28;20052;-61
2022/05/14 07:43:52;;;;;;;2.67;1.40;;;13.60;99.90;;;;;;5025332;28;20104;-60
2022/05/14 07:46:21;;;;;;;2.28;1.00;;;13.60;99.90;;;;;;5026118;28;20136;-60
2022/05/14 07:48:48;;;;;;;2.45;1.02;;;13.60;99.90;;;;;;5024626;28;20056;-61
2022/05/14 07:51:15;;;;;;;1.98;0.90;;;13.70;99.90;;;;;;5025586;28;20469;-60
2022/05/14 07:53:41;;;;;;;2.33;1.10;;;13.70;99.90;;;;;;5026773;28;20136;-60
2022/05/14 07:56:09;;;;;;;2.00;1.00;;;13.70;99.90;;;;;;5026053;28;20056;-61
2022/05/14 07:58:37;;;;;;;1.70;0.90;;;13.70;99.90;;;;;;5026700;28;20073;-60
2022/05/14 08:01:04;;;;;;;2.30;1.15;;;13.70;99.90;;;;;;5031121;28;20180;-60
2022/05/14 08:03:31;;;;;;;2.33;1.30;;;13.70;99.90;;;;;;5045964;28;20139;-60
2022/05/14 08:05:58;;;;;;;2.63;1.20;;;13.70;99.90;;;;;;5045728;28;20502;-60
2022/05/14 08:08:25;;;;;;;2.33;1.23;;;13.80;99.90;;;;;;5028864;28;20144;-60
2022/05/14 08:10:52;;;;;;;2.10;1.20;;;13.80;99.90;;;;;;5046645;28;20136;-60
2022/05/14 08:13:19;;;;;;;2.03;0.98;;;13.70;99.90;;;;;;5046191;28;20136;-60
2022/05/14 08:15:47;;;;;;;1.40;0.90;;;13.70;99.90;;;;;;5046615;28;20410;-60
2022/05/14 08:18:14;;;;;;;2.28;0.90;;;13.70;99.90;;;;;;5046181;28;20489;-60
2022/05/14 08:20:41;;;;;;;1.38;0.93;;;13.70;99.90;;;;;;5019379;28;20124;-59
2022/05/14 08:25:56;;;;;;;2.33;1.00;;;13.90;99.90;;;;;;5030876;28;20163;-61
2022/05/14 08:28:22;;;;;;;2.20;1.08;;;13.90;99.90;;;;;;5046085;28;20148;-62
2022/05/14 08:30:49;;;;;;;2.10;1.30;;;14.00;99.90;;;;;;5045784;28;20140;-62
2022/05/14 08:33:16;;;;;;;2.28;1.10;;;14.10;99.90;;;;;;5045527;28;20056;-61
2022/05/14 08:35:43;;;;;;;1.92;0.90;;;14.10;99.90;;;;;;5045071;28;21075;-61
2022/05/14 08:38:10;;;;;;;2.65;1.15;;;14.20;99.90;;;;;;5046523;28;20136;-61
2022/05/14 08:40:38;;;;;;;2.08;1.00;;;14.30;99.90;;;;;;5028478;28;20091;-61
2022/05/14 08:43:10;;;;;;;2.15;1.00;;;14.30;99.90;;;;;;5045623;28;20580;-62
2022/05/14 08:45:37;;;;;;;3.05;1.17;;;14.40;99.90;;;;;;5027694;28;20135;-62
2022/05/14 08:48:06;;;;;;;2.83;1.45;;;14.50;99.90;;;;;;5042920;28;20164;-61
2022/05/14 08:50:35;;;;;;;2.13;1.20;;;14.60;99.90;;;;;;5027079;28;20127;-61
2022/05/14 08:53:04;;;;;;;1.63;1.00;;;14.70;99.90;;;;;;5025859;28;20202;-61
2022/05/14 08:55:40;;;;;;;2.33;1.20;;;14.80;99.90;;;;;;5022311;28;20136;-62
2022/05/14 08:58:16;;;;;;;2.22;1.10;;;14.90;99.90;;;;;;5043549;28;20211;-61
2022/05/14 09:00:43;;;;;;;1.75;0.93;;;14.90;99.90;;;;;;5041983;28;20131;-61
2022/05/14 09:03:09;;;;;;;2.50;1.30;;;15.00;99.90;;;;;;5034771;28;20102;-62
2022/05/14 09:05:37;;;;;;;1.90;1.40;;;15.00;99.90;;;;;;5041003;28;20549;-63
2022/05/14 09:08:04;;;;;;;4.25;1.60;;;15.10;99.90;;;;;;5042598;28;20424;-63
2022/05/14 09:10:36;;;;;;;2.22;1.38;;;15.20;99.90;;;;;;5041777;28;20053;-63
2022/05/14 09:13:15;;;;;;;3.03;1.15;;;15.30;99.90;;;;;;5023853;28;20140;-63
2022/05/14 09:15:49;;;;;;;1.98;0.85;;;15.40;99.90;;;;;;5024229;28;20045;-63
2022/05/14 09:18:27;;;;;;;2.90;1.35;;;15.50;99.90;;;;;;5042146;28;20102;-63
2022/05/14 09:20:59;;;;;;;1.77;1.00;;;15.60;99.90;;;;;;5041159;28;20048;-63
2022/05/14 09:23:26;;;;;;;2.38;1.40;;;15.60;99.90;;;;;;5023816;28;20140;-60
2022/05/14 09:25:53;;;;;;;3.50;1.13;;;15.80;99.90;;;;;;5041904;28;20639;-61
2022/05/14 09:28:45;;;;;;;2.20;0.95;;;15.90;99.90;;;;;;5024231;28;20136;-61
2022/05/14 09:31:22;;;;;;;2.45;1.00;;;16.00;99.90;;;;;;5041938;28;20063;-61
2022/05/14 09:33:59;;;;;;;2.28;1.00;;;16.10;99.90;;;;;;5023360;28;20124;-62
2022/05/14 09:36:38;;;;;;;1.50;0.80;;;16.10;99.90;;;;;;5041760;28;20056;-61
2022/05/14 09:39:13;;;;;;;2.40;0.90;;;16.10;99.90;;;;;;5042037;28;20132;-61
2022/05/14 09:41:49;;;;;;;1.45;0.75;;;16.10;99.90;;;;;;5042318;28;20188;-61
2022/05/14 09:44:22;;;;;;;1.80;0.98;;;16.10;99.90;;;;;;5029001;28;20493;-61
2022/05/14 09:46:49;;;;;;;1.58;0.85;;;16.30;99.90;;;;;;5028935;28;20084;-61
2022/05/14 09:49:21;;;;;;;1.55;0.80;;;16.40;99.90;;;;;;5044884;28;20047;-61
2022/05/14 09:52:08;;;;;;;1.13;0.70;;;16.50;99.90;;;;;;5045799;28;20064;-61
2022/05/14 09:54:43;;;;;;;1.52;0.80;;;16.50;99.90;;;;;;5042224;28;20051;-61
2022/05/14 09:57:34;;;;;;;1.08;0.70;;;16.60;99.90;;;;;;5038262;28;20073;-60
2022/05/14 10:00:09;;;;;;;2.85;1.40;;;16.80;99.90;;;;;;5033914;28;20049;-62
2022/05/14 10:03:02;;;;;;;2.30;1.20;;;16.80;99.90;;;;;;5045283;28;20144;-61
2022/05/14 10:05:53;;;;;;;3.37;1.00;;;16.80;99.90;;;;;;5044749;28;20111;-61
2022/05/14 10:08:35;;;;;;;3.35;1.30;;;16.90;99.90;;;;;;5045667;28;20541;-60
2022/05/14 10:11:23;;;;;;;2.30;1.15;;;17.00;99.90;;;;;;5045830;28;20143;-61
2022/05/14 10:14:12;;;;;;;1.42;0.90;;;17.20;99.90;;;;;;5044739;28;20057;-61
2022/05/14 10:16:55;;;;;;;2.92;1.13;;;17.30;99.90;;;;;;5004888;28;20044;-61
2022/05/14 10:19:34;;;;;;;2.10;1.05;;;17.40;99.90;;;;;;5015981;28;20041;-61
2022/05/14 10:26:45;;;;;;;2.00;0.77;;;17.40;99.90;;;;;;5036418;28;20132;-62
2022/05/14 10:28:47;;;;;;;1.98;0.90;;;17.50;99.90;;;;;;5012034;28;20152;-61
2022/05/14 10:31:40;;;;;;;1.35;0.80;;;17.60;99.90;;;;;;5018733;28;20073;-60
2022/05/14 10:34:14;;;;;;;1.73;0.85;;;17.80;99.90;;;;;;5031838;28;20072;-60
2022/05/14 10:37:10;;;;;;;2.78;1.00;;;18.00;99.90;;;;;;5004042;28;20371;-59
2022/05/14 10:39:42;;;;;;;2.10;0.90;;;17.90;99.90;;;;;;5041724;28;20500;-61
2022/05/14 10:42:16;;;;;;;2.78;1.30;;;17.90;99.90;;;;;;5044737;28;20592;-60
2022/05/14 10:44:53;;;;;;;2.00;1.15;;;18.00;99.90;;;;;;5027251;28;20453;-59
2022/05/14 10:47:20;;;;;;;2.38;1.10;;;18.00;99.90;;;;;;5027362;28;20132;-59
2022/05/14 10:49:55;;;;;;;1.27;0.90;;;18.00;99.90;;;;;;5025521;28;20144;-60
2022/05/14 10:52:22;;;;;;;1.60;1.00;;;18.00;99.90;;;;;;5025933;28;20145;-60
2022/05/14 10:54:49;;;;;;;1.58;0.82;;;18.20;99.90;;;;;;5026180;28;20045;-60
2022/05/14 10:57:18;;;;;;;1.17;0.80;;;18.30;99.90;;;;;;5026374;28;20080;-61
2022/05/14 11:00:12;;;;;;;2.33;1.10;;;18.30;99.90;;;;;;5044061;28;20136;-60
2022/05/14 11:02:53;;;;;;;2.58;1.02;;;18.40;99.90;;;;;;5015216;28;20136;-61
2022/05/14 11:05:49;;;;;;;2.40;1.17;;;18.50;99.90;;;;;;5026154;28;20074;-60
2022/05/14 11:08:33;;;;;;;1.50;0.90;;;18.70;99.90;;;;;;4998785;28;20053;-61
2022/05/14 11:11:05;;;;;;;1.33;0.60;;;18.90;99.90;;;;;;5024471;28;20111;-61
2022/05/14 11:13:31;;;;;;;1.67;0.82;;;19.10;99.90;;;;;;5021789;28;20057;-62
2022/05/14 11:16:10;;;;;;;1.85;0.70;;;19.20;99.90;;;;;;5014547;28;20417;-62
2022/05/14 11:18:54;;;;;;;1.10;0.77;;;19.20;98.90;;;;;;5006053;28;20092;-61
2022/05/14 11:21:50;;;;;;;1.30;0.70;;;19.30;98.20;;;;;;5023292;28;20425;-62
2022/05/14 11:24:17;;;;;;;2.28;1.10;;;19.40;99.00;;;;;;5028824;28;20053;-62
2022/05/14 11:26:48;;;;;;;1.48;1.05;;;19.60;98.50;;;;;;5026012;28;20613;-61
2022/05/14 11:29:19;;;;;;;1.35;0.90;;;19.80;97.80;;;;;;5043894;28;20098;-61
2022/05/14 11:32:02;;;;;;;1.83;0.80;;;20.20;99.10;;;;;;5026719;28;20048;-62
2022/05/14 11:34:29;;;;;;;1.73;0.88;;;20.50;98.00;;;;;;5024845;28;20140;-62
2022/05/14 11:36:58;;;;;;;1.70;0.70;;;20.80;96.80;;;;;;5043035;28;20160;-62
2022/05/14 11:39:33;;;;;;;1.35;0.70;;;21.20;97.80;;;;;;5024580;28;20497;-62
2022/05/14 11:42:35;;;;;;;0.60;0.57;;;21.60;96.00;;;;;;5025264;28;20076;-62
2022/05/14 11:45:11;;;;;;;1.85;0.95;;;21.90;95.10;;;;;;4999109;28;20060;-62
2022/05/14 11:47:44;;;;;;;1.92;0.90;;;22.00;93.80;;;;;;5037064;28;20476;-62
2022/05/14 11:50:11;;;;;;;1.13;1.00;;;22.20;93.00;;;;;;5041841;28;20084;-62
2022/05/14 11:53:07;;;;;;;1.05;0.60;;;22.30;92.50;;;;;;5023454;28;20111;-62
2022/05/14 11:55:55;;;;;;;0.80;0.63;;;22.70;94.50;;;;;;5040718;28;20045;-62
2022/05/14 11:58:45;;;;;;;1.58;0.90;;;22.90;91.20;;;;;;5041469;28;20394;-62
2022/05/14 12:01:16;;;;;;;1.80;0.95;;;23.20;91.00;;;;;;5024048;28;20088;-62
2022/05/14 12:03:44;;;;;;;1.33;0.90;;;23.10;90.50;;;;;;5040365;28;20053;-61
2022/05/14 12:07:02;;;;;;;1.90;0.90;;;23.00;90.40;;;;;;5021186;28;20088;-63
2022/05/14 12:10:09;;;;;;;2.65;1.27;;;23.30;90.10;;;;;;4943423;28;20105;-62
2022/05/14 12:12:39;;;;;;;1.77;1.27;;;23.50;87.00;;;;;;5023328;28;20049;-62
2022/05/14 12:15:11;;;;;;;1.73;0.93;;;23.80;86.50;;;;;;5040592;28;20060;-63
2022/05/14 12:17:38;;;;;;;1.23;1.02;;;24.20;83.40;;;;;;5023447;28;20053;-61
2022/05/14 12:20:06;;;;;;;1.33;0.98;;;24.60;84.00;;;;;;5022294;28;20550;-62
2022/05/14 12:22:34;;;;;;;1.50;0.80;;;25.10;80.60;;;;;;5022940;28;20088;-62
2022/05/14 12:25:07;;;;;;;1.25;0.82;;;25.40;81.00;;;;;;5040429;28;20580;-62
2022/05/14 12:27:35;;;;;;;1.38;0.93;;;25.90;79.20;;;;;;5041182;28;20057;-63
2022/05/14 12:30:01;;;;;;;0.90;0.70;;;26.00;76.10;;;;;;5022112;28;20052;-62
2022/05/14 12:35:30;;;;;;;1.52;0.88;;;26.10;76.00;;;;;;5024469;28;20052;-62
2022/05/14 12:37:58;;;;;;;1.65;0.90;;;26.50;78.60;;;;;;5040779;28;20109;-62
2022/05/14 12:40:30;;;;;;;1.75;0.90;;;26.80;73.30;;;;;;5022622;28;20045;-63
2022/05/14 12:42:57;;;;;;;1.00;0.88;;;27.00;72.60;;;;;;5023183;28;20215;-62
2022/05/14 12:45:35;;;;;;;1.33;0.90;;;26.80;72.90;;;;;;5005769;28;20053;-63
2022/05/14 12:48:03;;;;;;;1.88;1.05;;;27.10;73.70;;;;;;5040926;28;20056;-62
2022/05/14 12:50:35;;;;;;;3.15;1.08;;;26.90;71.60;;;;;;5039646;28;20122;-62
2022/05/14 12:53:07;;;;;;;1.70;0.98;;;27.20;71.00;;;;;;5040058;28;20055;-62
2022/05/14 12:55:39;;;;;;;1.38;0.73;;;27.60;70.80;;;;;;5040174;28;20063;-62
2022/05/14 12:58:06;;;;;;;1.00;0.70;;;28.10;70.90;;;;;;5022784;28;20084;-62
2022/05/14 13:00:34;;;;;;;1.40;0.90;;;28.50;70.90;;;;;;5022434;28;20349;-66
2022/05/14 13:03:29;;;;;;;1.17;0.73;;;29.00;68.50;;;;;;5021989;28;20113;-62
2022/05/14 13:06:02;;;;;;;2.08;0.80;;;29.50;68.10;;;;;;5021372;28;20213;-62
2022/05/14 13:08:29;;;;;;;0.52;0.50;;;29.80;66.90;;;;;;5014733;28;20168;-62
2022/05/14 13:11:01;;;;;;;0.50;0.50;;;29.90;63.60;;;;;;5022685;28;20053;-62
2022/05/14 13:13:31;;;;;;;1.10;0.60;;;30.00;65.30;;;;;;5034980;28;20734;-62
2022/05/14 13:15:58;;;;;;;1.30;0.68;;;30.40;63.90;;;;;;5024694;28;20144;-62
2022/05/14 13:18:31;;;;;;;1.00;0.70;;;30.70;62.60;;;;;;5042023;28;20132;-62
2022/05/14 13:21:06;;;;;;;1.40;0.70;;;30.70;63.30;;;;;;5041715;28;20132;-62
2022/05/14 13:23:34;;;;;;;1.60;0.90;;;30.90;62.00;;;;;;5024471;28;20468;-62
2022/05/14 13:26:05;;;;;;;1.88;0.93;;;30.60;59.60;;;;;;5042042;28;20071;-63
2022/05/14 13:28:37;;;;;;;1.55;0.85;;;30.10;59.10;;;;;;5023952;28;20056;-62